createdAt,value
2023-04-28T00:00:21.234Z,6.78
2023-04-28T00:01:21.231Z,6.76
2023-04-28T00:02:21.233Z,6.78
2023-04-28T00:03:21.362Z,6.76
2023-04-28T00:04:21.910Z,6.79
2023-04-28T00:05:21.305Z,6.79
2023-04-28T00:06:21.186Z,6.78
2023-04-28T00:07:21.146Z,6.76
2023-04-28T00:08:21.135Z,6.72
2023-04-28T00:09:21.101Z,6.71
2023-04-28T00:10:21.102Z,6.71
2023-04-28T00:11:21.096Z,6.69
2023-04-28T00:12:21.088Z,6.65
2023-04-28T00:13:21.060Z,6.64
2023-04-28T00:14:21.087Z,6.58
2023-04-28T00:15:21.084Z,6.55
2023-04-28T00:16:21.107Z,6.40
2023-04-28T00:17:21.051Z,6.38
2023-04-28T00:18:21.087Z,6.35
2023-04-28T00:19:21.021Z,6.32
2023-04-28T00:20:20.986Z,6.35
2023-04-28T00:21:21.005Z,6.27
2023-04-28T00:22:20.968Z,6.21
2023-04-28T00:23:20.974Z,6.21
2023-04-28T00:24:20.954Z,6.19
2023-04-28T00:25:21.002Z,6.14
2023-04-28T00:26:20.922Z,6.11
2023-04-28T00:27:20.939Z,6.11
2023-04-28T00:28:32.811Z,6.11
2023-04-28T00:29:20.887Z,6.13
2023-04-28T00:30:20.877Z,6.13
2023-04-28T00:31:20.894Z,6.11
2023-04-28T00:32:20.958Z,6.11
2023-04-28T00:33:20.849Z,6.13
2023-04-28T00:34:20.841Z,6.13
2023-04-28T00:35:20.825Z,6.13
2023-04-28T00:36:20.821Z,6.14
2023-04-28T00:37:20.824Z,6.14
2023-04-28T00:38:20.795Z,6.14
2023-04-28T00:39:20.810Z,6.14
2023-04-28T00:40:20.793Z,6.17
2023-04-28T00:41:20.765Z,6.19
2023-04-28T00:42:20.777Z,6.24
2023-04-28T00:43:20.740Z,6.21
2023-04-28T00:44:20.736Z,6.20
2023-04-28T00:45:20.725Z,6.21
2023-04-28T00:46:20.736Z,6.24
2023-04-28T00:47:20.820Z,6.20
2023-04-28T00:48:20.697Z,6.21
2023-04-28T00:49:20.677Z,6.20
2023-04-28T00:50:20.683Z,6.17
2023-04-28T00:51:20.649Z,6.17
2023-04-28T00:52:20.678Z,6.17
2023-04-28T00:53:20.642Z,6.16
2023-04-28T00:54:20.632Z,6.16
2023-04-28T00:55:20.628Z,6.16
2023-04-28T00:56:20.619Z,6.16
2023-04-28T00:57:20.606Z,6.19
2023-04-28T00:58:20.614Z,6.20
2023-04-28T00:59:20.569Z,6.17
2023-04-28T01:00:20.558Z,6.19
2023-04-28T01:01:20.619Z,6.19
2023-04-28T01:02:20.656Z,6.16
2023-04-28T01:03:20.606Z,6.16
2023-04-28T01:04:21.313Z,6.14
2023-04-28T01:05:20.520Z,6.16
2023-04-28T01:06:20.506Z,6.14
2023-04-28T01:07:20.497Z,6.14
2023-04-28T01:08:20.504Z,6.14
2023-04-28T01:09:20.455Z,6.14
2023-04-28T01:10:20.461Z,6.17
2023-04-28T01:11:20.442Z,6.16
2023-04-28T01:12:20.462Z,6.19
2023-04-28T01:13:20.425Z,6.19
2023-04-28T01:14:20.441Z,6.16
2023-04-28T01:15:20.392Z,6.14
2023-04-28T01:16:20.427Z,6.17
2023-04-28T01:17:20.393Z,6.14
2023-04-28T01:18:20.366Z,6.14
2023-04-28T01:19:20.350Z,6.14
2023-04-28T01:20:20.350Z,6.14
2023-04-28T01:21:20.339Z,6.11
2023-04-28T01:22:20.349Z,6.13
2023-04-28T01:23:20.300Z,6.10
2023-04-28T01:24:20.323Z,6.10
2023-04-28T01:25:20.280Z,6.06
2023-04-28T01:26:20.287Z,6.06
2023-04-28T01:27:20.276Z,6.06
2023-04-28T01:28:20.261Z,6.01
2023-04-28T01:29:20.256Z,6.01
2023-04-28T01:30:20.239Z,5.98
2023-04-28T01:31:20.275Z,5.98
2023-04-28T01:32:20.392Z,5.98
2023-04-28T01:33:20.204Z,5.93
2023-04-28T01:34:20.190Z,5.96
2023-04-28T01:35:20.176Z,5.95
2023-04-28T01:36:20.193Z,5.88
2023-04-28T01:37:20.180Z,5.84
2023-04-28T01:38:20.180Z,5.87
2023-04-28T01:39:20.151Z,5.84
2023-04-28T01:40:20.128Z,5.83
2023-04-28T01:41:20.112Z,5.81
2023-04-28T01:42:20.188Z,5.81
2023-04-28T01:43:20.198Z,5.80
2023-04-28T01:44:20.149Z,5.78
2023-04-28T01:45:20.065Z,5.75
2023-04-28T01:46:20.070Z,5.78
2023-04-28T01:47:20.105Z,5.75
2023-04-28T01:48:20.033Z,5.74
2023-04-28T01:49:20.018Z,5.69
2023-04-28T01:50:20.023Z,5.73
2023-04-28T01:51:20.006Z,5.69
2023-04-28T01:52:20.020Z,5.67
2023-04-28T01:53:20.017Z,5.63
2023-04-28T01:54:20.022Z,5.62
2023-04-28T01:55:19.972Z,5.65
2023-04-28T01:56:19.953Z,5.62
2023-04-28T01:57:22.282Z,5.63
2023-04-28T01:58:19.934Z,5.62
2023-04-28T01:59:19.914Z,5.63
2023-04-28T02:00:19.909Z,5.60
2023-04-28T02:01:19.926Z,5.62
2023-04-28T02:02:20.003Z,5.65
2023-04-28T02:03:19.977Z,5.63
2023-04-28T02:04:20.044Z,5.59
2023-04-28T02:05:19.852Z,5.59
2023-04-28T02:06:19.857Z,5.60
2023-04-28T02:07:19.858Z,5.62
2023-04-28T02:08:19.819Z,5.59
2023-04-28T02:09:19.806Z,5.56
2023-04-28T02:10:19.856Z,5.55
2023-04-28T02:11:19.807Z,5.55
2023-04-28T02:12:19.791Z,5.52
2023-04-28T02:13:19.774Z,5.52
2023-04-28T02:14:19.763Z,5.49
2023-04-28T02:15:19.766Z,5.52
2023-04-28T02:16:19.788Z,5.49
2023-04-28T02:17:19.764Z,5.51
2023-04-28T02:18:19.722Z,5.49
2023-04-28T02:19:19.702Z,5.52
2023-04-28T02:20:19.727Z,5.52
2023-04-28T02:21:19.679Z,5.52
2023-04-28T02:22:19.766Z,5.48
2023-04-28T02:23:19.661Z,5.49
2023-04-28T02:24:19.656Z,5.48
2023-04-28T02:25:19.633Z,5.49
2023-04-28T02:26:19.616Z,5.51
2023-04-28T02:27:19.647Z,5.48
2023-04-28T02:28:19.591Z,5.49
2023-04-28T02:29:19.596Z,5.49
2023-04-28T02:30:19.582Z,5.48
2023-04-28T02:31:19.596Z,5.49
2023-04-28T02:32:19.662Z,5.51
2023-04-28T02:33:19.574Z,5.49
2023-04-28T02:34:19.548Z,5.49
2023-04-28T02:35:19.540Z,5.48
2023-04-28T02:36:19.525Z,5.48
2023-04-28T02:37:19.538Z,5.48
2023-04-28T02:38:19.506Z,5.49
2023-04-28T02:39:19.493Z,5.49
2023-04-28T02:40:19.490Z,5.48
2023-04-28T02:41:19.462Z,5.48
2023-04-28T02:42:19.528Z,5.48
2023-04-28T02:43:19.453Z,5.47
2023-04-28T02:44:19.429Z,5.48
2023-04-28T02:45:19.423Z,5.49
2023-04-28T02:46:19.465Z,5.45
2023-04-28T02:47:19.431Z,5.40
2023-04-28T02:48:19.401Z,5.35
2023-04-28T02:49:19.410Z,5.30
2023-04-28T02:50:19.368Z,5.29
2023-04-28T02:51:19.361Z,5.30
2023-04-28T02:52:19.429Z,5.29
2023-04-28T02:53:19.337Z,5.29
2023-04-28T02:54:19.345Z,5.26
2023-04-28T02:55:19.324Z,5.29
2023-04-28T02:56:19.295Z,5.27
2023-04-28T02:57:19.333Z,5.30
2023-04-28T02:58:19.291Z,5.30
2023-04-28T02:59:19.349Z,5.33
2023-04-28T03:00:19.303Z,5.35
2023-04-28T03:01:19.296Z,5.37
2023-04-28T03:02:19.315Z,5.37
2023-04-28T03:03:19.458Z,5.38
2023-04-28T03:04:19.497Z,5.38
2023-04-28T03:05:19.217Z,5.40
2023-04-28T03:06:19.169Z,5.40
2023-04-28T03:07:19.209Z,5.38
2023-04-28T03:08:19.184Z,5.40
2023-04-28T03:09:19.166Z,5.37
2023-04-28T03:10:19.160Z,5.37
2023-04-28T03:11:19.117Z,5.37
2023-04-28T03:12:19.125Z,5.38
2023-04-28T03:13:19.081Z,5.37
2023-04-28T03:14:19.155Z,5.38
2023-04-28T03:15:19.056Z,5.40
2023-04-28T03:16:19.090Z,5.38
2023-04-28T03:17:19.076Z,5.38
2023-04-28T03:18:19.031Z,5.37
2023-04-28T03:19:19.014Z,5.40
2023-04-28T03:20:19.009Z,5.40
2023-04-28T03:21:18.984Z,5.40
2023-04-28T03:22:19.011Z,5.40
2023-04-28T03:23:18.972Z,5.40
2023-04-28T03:24:18.950Z,5.42
2023-04-28T03:25:18.934Z,5.38
2023-04-28T03:26:18.963Z,5.41
2023-04-28T03:27:18.920Z,5.42
2023-04-28T03:28:18.895Z,5.41
2023-04-28T03:29:18.927Z,5.44
2023-04-28T03:30:18.891Z,5.41
2023-04-28T03:31:18.866Z,5.41
2023-04-28T03:32:19.071Z,5.44
2023-04-28T03:33:18.848Z,5.44
2023-04-28T03:34:18.919Z,5.45
2023-04-28T03:35:18.853Z,5.48
2023-04-28T03:36:18.824Z,5.47
2023-04-28T03:37:18.836Z,5.47
2023-04-28T03:38:18.805Z,5.51
2023-04-28T03:39:18.791Z,5.49
2023-04-28T03:40:18.766Z,5.51
2023-04-28T03:41:18.771Z,5.49
2023-04-28T03:42:18.778Z,5.52
2023-04-28T03:43:18.743Z,5.49
2023-04-28T03:44:18.727Z,5.51
2023-04-28T03:45:18.730Z,5.51
2023-04-28T03:46:18.757Z,5.49
2023-04-28T03:47:18.746Z,5.52
2023-04-28T03:48:18.698Z,5.51
2023-04-28T03:49:18.679Z,5.52
2023-04-28T03:50:18.673Z,5.52
2023-04-28T03:51:18.655Z,5.55
2023-04-28T03:52:18.725Z,5.56
2023-04-28T03:53:18.646Z,5.55
2023-04-28T03:54:18.703Z,5.56
2023-04-28T03:55:18.618Z,5.56
2023-04-28T03:56:18.621Z,5.56
2023-04-28T03:57:18.626Z,5.60
2023-04-28T03:58:18.580Z,5.56
2023-04-28T03:59:18.579Z,5.60
2023-04-28T04:00:18.584Z,5.60
2023-04-28T04:01:18.557Z,5.59
2023-04-28T04:02:18.669Z,5.62
2023-04-28T04:03:18.718Z,5.62
2023-04-28T04:04:18.815Z,5.65
2023-04-28T04:05:18.700Z,5.67
2023-04-28T04:06:18.494Z,5.67
2023-04-28T04:07:18.511Z,5.67
2023-04-28T04:08:18.482Z,5.69
2023-04-28T04:09:18.492Z,5.69
2023-04-28T04:10:18.456Z,5.67
2023-04-28T04:11:18.619Z,5.70
2023-04-28T04:12:18.453Z,5.70
2023-04-28T04:13:18.457Z,5.73
2023-04-28T04:14:18.763Z,5.75
2023-04-28T04:15:18.417Z,5.77
2023-04-28T04:16:18.431Z,5.74
2023-04-28T04:17:18.383Z,5.73
2023-04-28T04:18:18.402Z,5.75
2023-04-28T04:19:18.374Z,5.78
2023-04-28T04:20:18.382Z,5.78
2023-04-28T04:21:18.355Z,5.78
2023-04-28T04:22:18.362Z,5.83
2023-04-28T04:23:18.334Z,5.84
2023-04-28T04:24:18.598Z,5.84
2023-04-28T04:25:18.301Z,5.93
2023-04-28T04:26:18.286Z,5.93
2023-04-28T04:27:18.285Z,5.90
2023-04-28T04:28:18.258Z,5.92
2023-04-28T04:29:18.249Z,5.88
2023-04-28T04:30:18.241Z,5.92
2023-04-28T04:31:18.280Z,5.92
2023-04-28T04:32:18.242Z,5.93
2023-04-28T04:33:18.233Z,5.98
2023-04-28T04:34:18.411Z,6.02
2023-04-28T04:35:18.207Z,6.03
2023-04-28T04:36:18.169Z,6.08
2023-04-28T04:37:18.202Z,6.10
2023-04-28T04:38:18.150Z,6.08
2023-04-28T04:39:18.164Z,6.14
2023-04-28T04:40:18.126Z,6.14
2023-04-28T04:41:18.143Z,6.14
2023-04-28T04:42:25.468Z,6.17
2023-04-28T04:43:18.097Z,6.20
2023-04-28T04:44:18.355Z,6.21
2023-04-28T04:45:18.088Z,6.21
2023-04-28T04:46:18.115Z,6.25
2023-04-28T04:47:18.083Z,6.25
2023-04-28T04:48:18.044Z,6.25
2023-04-28T04:49:18.062Z,6.27
2023-04-28T04:50:18.031Z,6.25
2023-04-28T04:51:18.013Z,6.24
2023-04-28T04:52:18.078Z,6.25
2023-04-28T04:53:17.997Z,6.25
2023-04-28T04:54:17.974Z,6.24
2023-04-28T04:55:17.980Z,6.28
2023-04-28T04:56:17.959Z,6.27
2023-04-28T04:57:18.015Z,6.25
2023-04-28T04:58:17.937Z,6.28
2023-04-28T04:59:17.927Z,6.30
2023-04-28T05:00:17.918Z,6.33
2023-04-28T05:01:17.961Z,6.33
2023-04-28T05:02:17.974Z,6.38
2023-04-28T05:03:17.963Z,6.39
2023-04-28T05:04:18.221Z,6.40
2023-04-28T05:05:21.740Z,6.43
2023-04-28T05:06:17.884Z,6.45
2023-04-28T05:07:17.852Z,6.43
2023-04-28T05:08:17.837Z,6.50
2023-04-28T05:09:17.835Z,6.53
2023-04-28T05:10:17.841Z,6.57
2023-04-28T05:11:17.831Z,6.57
2023-04-28T05:12:17.806Z,6.60
2023-04-28T05:13:17.778Z,6.63
2023-04-28T05:14:18.283Z,6.64
2023-04-28T05:15:17.785Z,6.68
2023-04-28T05:16:17.812Z,6.72
2023-04-28T05:17:17.742Z,6.73
2023-04-28T05:18:17.723Z,6.75
2023-04-28T05:19:17.710Z,6.78
2023-04-28T05:20:17.716Z,6.79
2023-04-28T05:21:17.714Z,6.83
2023-04-28T05:22:17.681Z,6.83
2023-04-28T05:23:17.678Z,6.90
2023-04-28T05:24:17.996Z,6.90
2023-04-28T05:25:17.648Z,6.93
2023-04-28T05:26:17.660Z,6.97
2023-04-28T05:27:17.654Z,6.94
2023-04-28T05:28:17.993Z,6.91
2023-04-28T05:29:17.605Z,6.96
2023-04-28T05:30:17.588Z,6.97
2023-04-28T05:31:17.627Z,6.99
2023-04-28T05:32:17.587Z,7.01
2023-04-28T05:33:17.574Z,7.05
2023-04-28T05:34:17.932Z,7.08
2023-04-28T05:35:17.547Z,7.12
2023-04-28T05:36:17.552Z,7.11
2023-04-28T05:37:17.549Z,7.18
2023-04-28T05:38:17.502Z,7.19
2023-04-28T05:39:17.503Z,7.21
2023-04-28T05:40:17.491Z,7.26
2023-04-28T05:41:17.500Z,7.27
2023-04-28T05:42:17.488Z,7.33
2023-04-28T05:43:17.469Z,7.37
2023-04-28T05:44:17.824Z,7.41
2023-04-28T05:45:17.426Z,7.42
2023-04-28T05:46:29.272Z,7.47
2023-04-28T05:47:17.423Z,7.51
2023-04-28T05:48:17.395Z,7.54
2023-04-28T05:49:17.467Z,7.55
2023-04-28T05:50:17.367Z,7.58
2023-04-28T05:51:17.410Z,7.62
2023-04-28T05:52:17.377Z,7.67
2023-04-28T05:53:17.396Z,7.70
2023-04-28T05:54:17.541Z,7.71
2023-04-28T05:55:17.441Z,7.77
2023-04-28T05:56:17.488Z,7.77
2023-04-28T05:57:17.409Z,7.76
2023-04-28T05:58:17.381Z,7.76
2023-04-28T05:59:17.534Z,7.79
2023-04-28T06:00:17.324Z,7.84
2023-04-28T06:01:17.421Z,7.86
2023-04-28T06:02:17.448Z,7.86
2023-04-28T06:03:17.408Z,7.88
2023-04-28T06:04:17.515Z,7.91
2023-04-28T06:05:17.760Z,7.95
2023-04-28T06:06:17.280Z,8.00
2023-04-28T06:07:17.232Z,8.02
2023-04-28T06:08:17.200Z,8.07
2023-04-28T06:09:17.474Z,8.13
2023-04-28T06:10:17.170Z,8.20
2023-04-28T06:11:17.190Z,8.25
2023-04-28T06:12:17.166Z,8.32
2023-04-28T06:13:17.145Z,8.37
2023-04-28T06:14:17.399Z,8.45
2023-04-28T06:15:17.115Z,8.54
2023-04-28T06:16:17.176Z,8.61
2023-04-28T06:17:17.133Z,8.67
2023-04-28T06:18:17.111Z,8.71
2023-04-28T06:19:17.075Z,8.79
2023-04-28T06:20:17.090Z,8.85
2023-04-28T06:21:17.073Z,8.96
2023-04-28T06:22:17.056Z,8.98
2023-04-28T06:23:17.068Z,9.03
2023-04-28T06:24:17.414Z,9.04
2023-04-28T06:25:17.013Z,9.15
2023-04-28T06:26:18.372Z,9.26
2023-04-28T06:27:16.997Z,9.35
2023-04-28T06:28:16.982Z,9.48
2023-04-28T06:29:16.988Z,9.59
2023-04-28T06:30:16.964Z,9.68
2023-04-28T06:31:17.079Z,9.75
2023-04-28T06:32:16.939Z,9.75
2023-04-28T06:33:16.924Z,9.85
2023-04-28T06:34:17.181Z,9.96
2023-04-28T06:35:16.912Z,10.10
2023-04-28T06:36:16.951Z,10.24
2023-04-28T06:37:16.911Z,10.35
2023-04-28T06:38:16.886Z,10.38
2023-04-28T06:39:16.856Z,10.36
2023-04-28T06:40:16.868Z,10.47
2023-04-28T06:41:16.868Z,10.62
2023-04-28T06:42:16.838Z,10.70
2023-04-28T06:43:16.808Z,10.76
2023-04-28T06:44:17.023Z,10.91
2023-04-28T06:45:16.786Z,11.05
2023-04-28T06:46:16.898Z,11.17
2023-04-28T06:47:16.764Z,11.24
2023-04-28T06:48:16.790Z,11.30
2023-04-28T06:49:16.758Z,11.38
2023-04-28T06:50:16.754Z,11.42
2023-04-28T06:51:17.375Z,11.46
2023-04-28T06:52:16.751Z,11.57
2023-04-28T06:53:16.733Z,11.67
2023-04-28T06:54:17.037Z,11.75
2023-04-28T06:55:16.695Z,11.84
2023-04-28T06:56:16.680Z,11.94
2023-04-28T06:57:16.706Z,12.00
2023-04-28T06:58:16.654Z,12.07
2023-04-28T06:59:16.657Z,12.15
2023-04-28T07:00:16.641Z,12.15
2023-04-28T07:01:16.723Z,12.19
2023-04-28T07:02:16.748Z,12.25
2023-04-28T07:03:16.718Z,12.26
2023-04-28T07:04:17.150Z,12.29
2023-04-28T07:05:16.840Z,12.34
2023-04-28T07:06:16.589Z,12.30
2023-04-28T07:07:16.574Z,12.30
2023-04-28T07:08:16.555Z,12.11
2023-04-28T07:09:16.536Z,12.08
2023-04-28T07:10:16.559Z,12.05
2023-04-28T07:11:16.535Z,12.08
2023-04-28T07:12:16.533Z,12.05
2023-04-28T07:13:16.492Z,12.07
2023-04-28T07:14:16.778Z,12.01
2023-04-28T07:15:16.472Z,12.03
2023-04-28T07:16:16.546Z,12.03
2023-04-28T07:17:16.461Z,11.96
2023-04-28T07:18:16.508Z,11.79
2023-04-28T07:19:16.543Z,11.79
2023-04-28T07:20:16.444Z,11.85
2023-04-28T07:21:16.420Z,11.96
2023-04-28T07:22:16.423Z,11.90
2023-04-28T07:23:16.391Z,11.96
2023-04-28T07:24:16.539Z,11.97
2023-04-28T07:25:16.388Z,11.97
2023-04-28T07:26:16.386Z,12.03
2023-04-28T07:27:16.349Z,12.11
2023-04-28T07:28:16.339Z,12.23
2023-04-28T07:29:16.325Z,12.40
2023-04-28T07:30:27.212Z,12.56
2023-04-28T07:31:16.372Z,12.74
2023-04-28T07:32:16.466Z,13.13
2023-04-28T07:33:16.298Z,13.80
2023-04-28T07:34:16.602Z,14.56
2023-04-28T07:35:16.296Z,15.35
2023-04-28T07:36:16.288Z,16.17
2023-04-28T07:37:16.249Z,16.91
2023-04-28T07:38:16.250Z,17.87
2023-04-28T07:39:16.260Z,18.57
2023-04-28T07:40:16.214Z,18.47
2023-04-28T07:41:16.255Z,18.87
2023-04-28T07:42:16.187Z,18.96
2023-04-28T07:43:16.174Z,18.87
2023-04-28T07:44:16.634Z,19.34
2023-04-28T07:45:16.187Z,19.67
2023-04-28T07:46:16.185Z,19.97
2023-04-28T07:47:16.165Z,19.85
2023-04-28T07:48:16.171Z,19.82
2023-04-28T07:49:16.127Z,19.92
2023-04-28T07:50:16.101Z,20.15
2023-04-28T07:51:16.110Z,20.02
2023-04-28T07:52:16.102Z,20.31
2023-04-28T07:53:16.064Z,20.94
2023-04-28T07:54:16.355Z,21.63
2023-04-28T07:55:16.068Z,21.70
2023-04-28T07:56:16.090Z,21.61
2023-04-28T07:57:16.034Z,21.89
2023-04-28T07:58:16.047Z,22.09
2023-04-28T07:59:16.003Z,22.15
2023-04-28T08:00:16.035Z,22.41
2023-04-28T08:01:16.018Z,22.57
2023-04-28T08:02:16.051Z,22.48
2023-04-28T08:03:16.265Z,22.36
2023-04-28T08:04:16.363Z,21.85
2023-04-28T08:05:16.150Z,21.40
2023-04-28T08:06:15.954Z,21.68
2023-04-28T08:07:15.950Z,22.06
2023-04-28T08:08:15.917Z,22.61
2023-04-28T08:09:15.891Z,23.14
2023-04-28T08:10:15.892Z,23.15
2023-04-28T08:11:15.940Z,22.42
2023-04-28T08:12:15.883Z,22.01
2023-04-28T08:13:15.876Z,22.29
2023-04-28T08:14:16.082Z,22.38
2023-04-28T08:15:17.311Z,22.36
2023-04-28T08:16:15.903Z,22.61
2023-04-28T08:17:15.818Z,22.39
2023-04-28T08:18:15.893Z,22.08
2023-04-28T08:19:15.794Z,21.83
2023-04-28T08:20:15.788Z,21.71
2023-04-28T08:21:15.820Z,21.49
2023-04-28T08:22:15.788Z,21.16
2023-04-28T08:23:15.758Z,21.11
2023-04-28T08:24:15.955Z,20.96
2023-04-28T08:25:15.732Z,20.88
2023-04-28T08:26:15.744Z,20.96
2023-04-28T08:27:15.704Z,21.00
2023-04-28T08:28:15.720Z,21.19
2023-04-28T08:29:15.686Z,21.34
2023-04-28T08:30:15.683Z,21.49
2023-04-28T08:31:15.729Z,21.19
2023-04-28T08:32:15.700Z,21.18
2023-04-28T08:33:15.672Z,21.19
2023-04-28T08:34:16.658Z,21.36
2023-04-28T08:35:15.629Z,21.83
2023-04-28T08:36:15.670Z,22.17
2023-04-28T08:37:15.598Z,22.24
2023-04-28T08:38:15.637Z,22.33
2023-04-28T08:39:15.653Z,21.28
2023-04-28T08:40:15.568Z,20.07
2023-04-28T08:41:15.579Z,20.07
2023-04-28T08:42:15.610Z,20.53
2023-04-28T08:43:15.540Z,20.72
2023-04-28T08:44:15.691Z,20.76
2023-04-28T08:45:15.535Z,20.88
2023-04-28T08:46:15.560Z,20.94
2023-04-28T08:47:15.502Z,20.71
2023-04-28T08:48:15.479Z,20.01
2023-04-28T08:49:15.543Z,20.01
2023-04-28T08:50:15.479Z,20.31
2023-04-28T08:51:15.484Z,20.56
2023-04-28T08:52:15.437Z,20.71
2023-04-28T08:53:15.442Z,20.82
2023-04-28T08:54:26.201Z,20.98
2023-04-28T08:55:15.423Z,20.81
2023-04-28T08:56:15.409Z,20.78
2023-04-28T08:57:15.399Z,20.71
2023-04-28T08:58:15.419Z,20.79
2023-04-28T08:59:15.387Z,21.09
2023-04-28T09:00:15.363Z,21.21
2023-04-28T09:01:15.376Z,20.71
2023-04-28T09:02:15.413Z,20.51
2023-04-28T09:03:15.450Z,20.90
2023-04-28T09:04:15.602Z,21.24
2023-04-28T09:05:15.758Z,20.60
2023-04-28T09:06:15.315Z,20.60
2023-04-28T09:07:15.307Z,20.41
2023-04-28T09:08:15.281Z,20.38
2023-04-28T09:09:15.254Z,20.60
2023-04-28T09:10:15.256Z,21.08
2023-04-28T09:11:15.290Z,21.51
2023-04-28T09:12:15.240Z,21.28
2023-04-28T09:13:15.245Z,21.18
2023-04-28T09:14:15.483Z,21.30
2023-04-28T09:15:15.198Z,21.26
2023-04-28T09:16:15.216Z,21.56
2023-04-28T09:17:15.200Z,21.98
2023-04-28T09:18:15.292Z,22.33
2023-04-28T09:19:15.176Z,22.33
2023-04-28T09:20:15.162Z,22.23
2023-04-28T09:21:15.132Z,22.19
2023-04-28T09:22:26.404Z,22.17
2023-04-28T09:23:15.131Z,22.05
2023-04-28T09:24:15.359Z,22.31
2023-04-28T09:25:15.112Z,22.33
2023-04-28T09:26:15.188Z,22.30
2023-04-28T09:27:15.092Z,22.01
2023-04-28T09:28:15.095Z,21.43
2023-04-28T09:29:15.076Z,21.03
2023-04-28T09:30:15.044Z,20.97
2023-04-28T09:31:15.033Z,21.12
2023-04-28T09:32:15.202Z,21.06
2023-04-28T09:33:15.048Z,21.15
2023-04-28T09:34:18.039Z,21.21
2023-04-28T09:35:14.987Z,21.06
2023-04-28T09:36:15.009Z,21.03
2023-04-28T09:37:15.123Z,20.88
2023-04-28T09:38:14.970Z,20.81
2023-04-28T09:39:14.949Z,20.83
2023-04-28T09:40:14.957Z,20.88
2023-04-28T09:41:14.973Z,20.48
2023-04-28T09:42:14.936Z,19.94
2023-04-28T09:43:21.194Z,19.62
2023-04-28T09:44:15.078Z,19.72
2023-04-28T09:45:14.909Z,19.79
2023-04-28T09:46:15.002Z,20.00
2023-04-28T09:47:14.880Z,20.01
2023-04-28T09:48:14.901Z,19.49
2023-04-28T09:49:14.838Z,19.70
2023-04-28T09:50:15.171Z,20.22
2023-04-28T09:51:14.850Z,20.60
2023-04-28T09:52:14.881Z,21.00
2023-04-28T09:53:14.816Z,21.00
2023-04-28T09:54:14.828Z,21.27
2023-04-28T09:55:14.789Z,21.56
2023-04-28T09:56:14.807Z,21.79
2023-04-28T09:57:14.769Z,22.01
2023-04-28T09:58:14.761Z,21.98
2023-04-28T09:59:14.783Z,21.86
2023-04-28T10:00:14.957Z,21.86
2023-04-28T10:01:14.830Z,21.90
2023-04-28T10:02:36.263Z,21.85
2023-04-28T10:03:14.840Z,21.58
2023-04-28T10:04:14.809Z,20.83
2023-04-28T10:05:14.837Z,20.19
2023-04-28T10:06:14.739Z,19.57
2023-04-28T10:07:14.695Z,19.58
2023-04-28T10:08:14.665Z,19.76
2023-04-28T10:09:14.652Z,19.92
2023-04-28T10:10:15.009Z,20.38
2023-04-28T10:11:14.685Z,20.85
2023-04-28T10:12:14.629Z,21.01
2023-04-28T10:13:14.739Z,21.16
2023-04-28T10:14:14.667Z,21.26
2023-04-28T10:15:14.572Z,21.01
2023-04-28T10:16:14.654Z,20.98
2023-04-28T10:17:14.553Z,21.03
2023-04-28T10:18:14.596Z,21.00
2023-04-28T10:19:14.555Z,20.75
2023-04-28T10:20:14.577Z,20.63
2023-04-28T10:21:14.589Z,20.58
2023-04-28T10:22:14.581Z,20.93
2023-04-28T10:23:14.499Z,21.06
2023-04-28T10:24:14.509Z,20.96
2023-04-28T10:25:14.523Z,21.05
2023-04-28T10:26:14.498Z,21.46
2023-04-28T10:27:14.509Z,21.48
2023-04-28T10:28:14.459Z,21.71
2023-04-28T10:29:14.439Z,21.70
2023-04-28T10:30:26.497Z,21.74
2023-04-28T10:31:14.505Z,21.61
2023-04-28T10:32:14.403Z,21.67
2023-04-28T10:33:14.477Z,21.68
2023-04-28T10:34:14.389Z,21.96
2023-04-28T10:35:14.380Z,21.99
2023-04-28T10:36:16.213Z,21.96
2023-04-28T10:37:14.487Z,22.05
2023-04-28T10:38:14.416Z,21.79
2023-04-28T10:39:14.381Z,21.56
2023-04-28T10:40:14.349Z,21.52
2023-04-28T10:41:14.341Z,21.58
2023-04-28T10:42:14.372Z,21.71
2023-04-28T10:43:14.548Z,21.74
2023-04-28T10:44:14.306Z,21.75
2023-04-28T10:45:14.306Z,21.30
2023-04-28T10:46:14.307Z,20.87
2023-04-28T10:47:14.265Z,20.60
2023-04-28T10:48:14.245Z,20.58
2023-04-28T10:49:14.307Z,20.78
2023-04-28T10:50:14.331Z,20.96
2023-04-28T10:51:14.210Z,20.82
2023-04-28T10:52:14.238Z,21.19
2023-04-28T10:53:14.209Z,21.53
2023-04-28T10:54:14.193Z,21.52
2023-04-28T10:55:22.227Z,21.31
2023-04-28T10:56:14.169Z,21.38
2023-04-28T10:57:14.205Z,21.51
2023-04-28T10:58:14.137Z,21.93
2023-04-28T10:59:14.140Z,22.20
2023-04-28T11:00:14.137Z,22.39
2023-04-28T11:01:14.296Z,22.48
2023-04-28T11:02:14.279Z,22.54
2023-04-28T11:03:15.629Z,22.48
2023-04-28T11:04:14.370Z,22.52
2023-04-28T11:05:14.865Z,22.44
2023-04-28T11:06:14.213Z,21.93
2023-04-28T11:07:14.118Z,21.89
2023-04-28T11:08:14.095Z,21.85
2023-04-28T11:09:14.086Z,21.74
2023-04-28T11:10:14.043Z,21.43
2023-04-28T11:11:14.100Z,21.27
2023-04-28T11:12:14.024Z,20.93
2023-04-28T11:13:14.019Z,20.98
2023-04-28T11:14:14.019Z,21.19
2023-04-28T11:15:14.065Z,21.22
2023-04-28T11:16:14.034Z,21.51
2023-04-28T11:17:14.042Z,21.94
2023-04-28T11:18:13.919Z,22.09
2023-04-28T11:19:13.922Z,22.59
2023-04-28T11:20:13.922Z,22.70
2023-04-28T11:21:13.928Z,22.45
2023-04-28T11:22:13.894Z,22.72
2023-04-28T11:23:14.892Z,22.75
2023-04-28T11:24:13.922Z,22.70
2023-04-28T11:25:13.890Z,22.67
2023-04-28T11:26:14.983Z,22.54
2023-04-28T11:27:13.913Z,22.31
2023-04-28T11:28:14.223Z,21.81
2023-04-28T11:29:13.932Z,21.59
2023-04-28T11:30:13.894Z,21.52
2023-04-28T11:31:13.918Z,21.22
2023-04-28T11:32:13.996Z,20.91
2023-04-28T11:33:13.836Z,20.97
2023-04-28T11:34:13.827Z,21.22
2023-04-28T11:35:13.795Z,21.24
2023-04-28T11:36:14.009Z,21.01
2023-04-28T11:37:13.847Z,20.58
2023-04-28T11:38:13.828Z,20.40
2023-04-28T11:39:13.794Z,19.92
2023-04-28T11:40:13.746Z,19.31
2023-04-28T11:41:13.769Z,18.91
2023-04-28T11:42:13.698Z,18.79
2023-04-28T11:43:14.351Z,18.96
2023-04-28T11:44:13.711Z,19.06
2023-04-28T11:45:13.700Z,19.13
2023-04-28T11:46:13.739Z,19.24
2023-04-28T11:47:13.647Z,19.28
2023-04-28T11:48:13.616Z,19.32
2023-04-28T11:49:13.595Z,19.09
2023-04-28T11:50:13.624Z,19.07
2023-04-28T11:51:13.609Z,18.94
2023-04-28T11:52:13.639Z,18.83
2023-04-28T11:53:13.549Z,18.93
2023-04-28T11:54:13.565Z,18.89
2023-04-28T11:55:13.530Z,18.68
2023-04-28T11:56:13.540Z,18.49
2023-04-28T11:57:13.529Z,18.53
2023-04-28T11:58:13.521Z,18.51
2023-04-28T11:59:13.536Z,18.62
2023-04-28T12:00:13.511Z,18.74
2023-04-28T12:01:13.543Z,18.78
2023-04-28T12:02:13.481Z,18.76
2023-04-28T12:03:13.660Z,18.62
2023-04-28T12:04:14.487Z,18.72
2023-04-28T12:05:13.499Z,18.72
2023-04-28T12:06:13.512Z,18.50
2023-04-28T12:07:13.514Z,18.39
2023-04-28T12:08:13.462Z,18.35
2023-04-28T12:09:13.451Z,18.32
2023-04-28T12:10:13.466Z,18.49
2023-04-28T12:11:13.410Z,18.68
2023-04-28T12:12:13.474Z,18.76
2023-04-28T12:13:13.445Z,18.79
2023-04-28T12:14:13.365Z,18.90
2023-04-28T12:15:13.567Z,19.06
2023-04-28T12:16:13.508Z,19.23
2023-04-28T12:17:13.590Z,19.75
2023-04-28T12:18:13.352Z,20.07
2023-04-28T12:19:13.313Z,20.33
2023-04-28T12:20:13.432Z,20.51
2023-04-28T12:21:13.334Z,20.23
2023-04-28T12:22:13.328Z,20.10
2023-04-28T12:23:13.518Z,20.05
2023-04-28T12:24:13.294Z,20.22
2023-04-28T12:25:13.312Z,20.41
2023-04-28T12:26:13.379Z,20.63
2023-04-28T12:27:13.286Z,20.91
2023-04-28T12:28:13.216Z,20.87
2023-04-28T12:29:13.274Z,21.05
2023-04-28T12:30:13.344Z,20.88
2023-04-28T12:31:15.168Z,20.81
2023-04-28T12:32:13.270Z,20.73
2023-04-28T12:33:13.194Z,20.25
2023-04-28T12:34:13.178Z,20.40
2023-04-28T12:35:13.162Z,20.58
2023-04-28T12:36:13.210Z,20.66
2023-04-28T12:37:13.253Z,20.61
2023-04-28T12:38:14.244Z,20.71
2023-04-28T12:39:13.136Z,20.76
2023-04-28T12:40:13.093Z,20.75
2023-04-28T12:41:13.129Z,20.81
2023-04-28T12:42:13.090Z,20.90
2023-04-28T12:43:13.068Z,20.79
2023-04-28T12:44:13.065Z,20.69
2023-04-28T12:45:13.050Z,20.72
2023-04-28T12:46:13.109Z,20.58
2023-04-28T12:47:13.879Z,20.33
2023-04-28T12:48:13.107Z,19.87
2023-04-28T12:49:13.113Z,19.70
2023-04-28T12:50:12.966Z,19.64
2023-04-28T12:51:13.024Z,19.46
2023-04-28T12:52:13.039Z,19.16
2023-04-28T12:53:12.952Z,18.91
2023-04-28T12:54:12.939Z,19.02
2023-04-28T12:55:12.975Z,19.09
2023-04-28T12:56:13.060Z,19.07
2023-04-28T12:57:13.008Z,18.97
2023-04-28T12:58:12.947Z,18.91
2023-04-28T12:59:12.926Z,18.96
2023-04-28T13:00:12.890Z,18.94
2023-04-28T13:01:13.082Z,18.84
2023-04-28T13:02:12.870Z,18.86
2023-04-28T13:03:13.009Z,18.86
2023-04-28T13:04:13.027Z,18.89
2023-04-28T13:05:12.984Z,18.90